Time;durP1;ratioP1;P1;durP2;ratioP2;P2;SDS_P1;SDS_P2;PMS_P1;PMS_P2;Temp;Humidity;BMP_temperature;BMP_pressure;BME280_temperature;BME280_humidity;BME280_pressure;Samples;Min_cycle;Max_cycle;Signal;HPM_P1;HPM_P2
2023/03/29 00:08:31;;;;;;;3.33;0.98;;;;;;;22.88;37.32;101877.09;20945289;28;20109;-80
2023/03/29 00:18:32;;;;;;;8.13;1.45;;;;;;;22.57;37.74;101868.56;21048304;28;20098;-70
2023/03/29 00:28:36;;;;;;;6.63;1.60;;;;;;;22.49;37.62;101892.19;21086404;28;20487;-72
2023/03/29 00:38:38;;;;;;;8.20;1.27;;;;;;;22.37;37.40;101899.13;21077836;28;20036;-72
2023/03/29 00:48:40;;;;;;;7.78;1.40;;;;;;;22.09;37.62;101873.22;21052957;28;20036;-72
2023/03/29 00:58:56;;;;;;;2.03;1.20;;;;;;;22.19;37.20;101909.56;21084400;28;20036;-72
2023/03/29 01:09:00;;;;;;;5.18;1.13;;;;;;;22.18;37.26;101926.56;21062227;28;20098;-72
2023/03/29 01:19:06;;;;;;;4.18;1.25;;;;;;;22.15;37.10;101936.28;21060984;28;20105;-71
2023/03/29 01:29:46;;;;;;;5.28;1.27;;;;;;;22.18;37.48;101958.06;21082647;28;20036;-72
2023/03/29 01:39:47;;;;;;;;;;;;;;;22.21;37.22;101960.31;21070286;28;20094;-71
2023/03/29 01:50:15;;;;;;;3.35;1.27;;;;;;;21.98;37.06;101941.94;21079188;28;20391;-72
2023/03/29 02:00:23;;;;;;;6.18;1.33;;;;;;;22.19;36.79;101973.69;21070418;28;20048;-71
2023/03/29 02:10:26;;;;;;;1.93;1.47;;;;;;;22.20;36.59;101950.28;21079149;28;20089;-72
2023/03/29 02:20:32;;;;;;;1.88;1.27;;;;;;;22.07;36.69;101939.53;21059308;28;20050;-71
2023/03/29 02:31:18;;;;;;;1.70;1.15;;;;;;;22.13;37.46;101929.28;21073216;28;20436;-71
2023/03/29 02:41:22;;;;;;;3.78;1.30;;;;;;;22.22;37.09;101902.59;20998330;28;20048;-72
2023/03/29 02:51:29;;;;;;;3.47;1.48;;;;;;;22.26;36.38;101871.13;21056140;28;20044;-68
2023/03/29 03:01:31;;;;;;;5.70;1.40;;;;;;;21.70;36.57;101755.59;21059706;28;20085;-71
2023/03/29 03:11:33;;;;;;;3.60;1.67;;;;;;;22.37;36.28;101843.34;21051484;28;20566;-71
2023/03/29 03:21:36;;;;;;;6.93;1.23;;;;;;;22.29;36.62;101828.78;21058440;28;20048;-71
2023/03/29 03:31:40;;;;;;;1.63;1.25;;;;;;;22.42;36.30;101862.88;21064574;28;20035;-71
2023/03/29 03:41:41;;;;;;;4.15;1.40;;;;;;;22.29;36.27;101853.88;21053455;28;20062;-71
2023/03/29 03:51:44;;;;;;;2.28;1.40;;;;;;;22.46;36.64;101880.78;21071528;28;20101;-70
2023/03/29 04:01:45;;;;;;;3.13;1.38;;;;;;;22.50;36.71;101893.06;21063797;28;20105;-69
2023/03/29 04:11:46;;;;;;;4.55;1.60;;;;;;;22.47;36.38;101888.03;21068167;28;20491;-69
2023/03/29 04:21:51;;;;;;;5.85;1.70;;;;;;;22.36;36.76;101889.03;21073065;28;20040;-71
2023/03/29 04:31:53;;;;;;;2.97;1.33;;;;;;;22.39;36.86;101891.31;21075111;28;20040;-72
2023/03/29 04:41:54;;;;;;;2.97;1.77;;;;;;;22.28;36.74;101874.50;21075370;28;20041;-71
2023/03/29 04:51:56;;;;;;;3.25;1.40;;;;;;;22.43;36.36;101881.28;21068502;28;20077;-70
2023/03/29 05:01:58;;;;;;;4.70;1.20;;;;;;;22.39;36.33;101903.28;21069457;28;20063;-70
2023/03/29 05:11:59;;;;;;;5.65;1.83;;;;;;;22.41;36.04;101897.47;21078726;28;20032;-70
2023/03/29 05:22:01;;;;;;;2.28;1.20;;;;;;;22.34;36.24;101906.06;21073441;28;20125;-71
2023/03/29 05:32:02;;;;;;;2.88;1.27;;;;;;;22.40;35.93;101932.03;21047832;28;20036;-70
2023/03/29 05:42:07;;;;;;;1.67;1.30;;;;;;;22.40;35.88;101937.59;21076978;28;20560;-72
2023/03/29 05:52:08;;;;;;;2.85;1.40;;;;;;;22.30;35.65;101900.16;21040037;28;20449;-71
2023/03/29 06:02:11;;;;;;;5.00;1.45;;;;;;;22.04;35.73;101850.88;21068372;28;20043;-70
2023/03/29 06:12:12;;;;;;;1.23;0.95;;;;;;;22.38;35.82;101917.50;21068256;28;20044;-71
2023/03/29 06:22:14;;;;;;;1.50;1.30;;;;;;;22.33;35.59;101894.06;21071869;28;20043;-70
2023/03/29 06:32:15;;;;;;;1.88;1.40;;;;;;;22.30;35.84;101900.16;21066476;28;20032;-69
2023/03/29 06:42:25;;;;;;;2.00;1.10;;;;;;;22.06;35.51;101887.69;21065494;28;20032;-72
2023/03/29 06:52:27;;;;;;;2.50;1.42;;;;;;;22.08;35.38;101877.09;21065270;28;20070;-72
2023/03/29 07:02:29;;;;;;;1.20;1.05;;;;;;;22.08;35.71;101885.44;21070050;28;20039;-71
2023/03/29 07:12:33;;;;;;;2.22;1.30;;;;;;;22.16;35.27;101910.09;21063561;28;20048;-71
2023/03/29 07:22:34;;;;;;;1.83;1.10;;;;;;;22.25;35.27;101935.53;21068366;28;20082;-71
2023/03/29 07:32:37;;;;;;;1.42;1.00;;;;;;;22.22;35.38;101938.84;21064748;28;20042;-71
2023/03/29 07:42:48;;;;;;;1.50;1.10;;;;;;;21.98;35.39;101907.66;21069802;28;20055;-71
2023/03/29 07:52:49;;;;;;;3.35;1.40;;;;;;;22.17;35.59;101945.22;21077197;28;20387;-70
2023/03/29 08:02:51;;;;;;;2.92;1.15;;;;;;;22.12;35.06;101953.53;21078079;28;20048;-70
2023/03/29 08:12:52;;;;;;;1.20;1.08;;;;;;;22.10;35.05;101955.72;21074982;28;20043;-70
2023/03/29 08:22:54;;;;;;;1.75;1.33;;;;;;;22.15;35.12;101964.16;21083528;28;20104;-70
2023/03/29 08:32:56;;;;;;;1.25;1.08;;;;;;;22.14;34.93;101975.59;21074311;28;20120;-71
2023/03/29 08:43:06;;;;;;;2.05;1.48;;;;;;;22.09;34.95;101993.06;21078838;28;20035;-71
2023/03/29 08:53:14;;;;;;;1.52;1.30;;;;;;;21.99;35.30;101985.47;21073966;28;20047;-71
2023/03/29 09:03:25;;;;;;;1.93;1.30;;;;;;;21.64;35.12;101958.03;21077918;28;20048;-71
2023/03/29 09:13:45;;;;;;;1.48;1.33;;;;;;;22.03;35.11;101996.91;21077970;28;20488;-70
2023/03/29 09:23:58;;;;;;;1.70;1.40;;;;;;;22.01;34.89;102001.91;21066176;28;20478;-70
2023/03/29 09:34:17;;;;;;;1.95;1.23;;;;;;;21.89;34.96;102007.63;21067369;28;20101;-72
2023/03/29 09:44:26;;;;;;;1.20;1.10;;;;;;;21.99;34.92;102031.97;21074928;28;20148;-70
2023/03/29 09:54:27;;;;;;;;;;;;;;;21.98;34.79;102047.00;21075860;28;20484;-71
2023/03/29 10:04:28;;;;;;;1.20;1.02;;;;;;;21.80;34.67;102040.69;21071492;28;19916;-70
2023/03/29 10:14:32;;;;;;;1.35;1.15;;;;;;;21.94;34.61;102094.06;21072802;28;20032;-69
2023/03/29 10:24:36;;;;;;;1.30;1.20;;;;;;;21.85;34.56;102103.16;21071301;28;20032;-71
2023/03/29 10:34:38;;;;;;;1.30;1.02;;;;;;;21.61;34.61;102069.97;21061700;28;20028;-73
2023/03/29 10:44:40;;;;;;;1.20;1.10;;;;;;;21.85;34.49;102119.88;21073510;28;20108;-70
2023/03/29 10:54:41;;;;;;;1.38;1.10;;;;;;;21.81;34.33;102114.00;21071253;28;20105;-69
2023/03/29 11:05:00;;;;;;;1.40;1.10;;;;;;;21.79;34.39;102121.75;21062227;28;20093;-69
2023/03/29 11:15:13;;;;;;;1.83;1.20;;;;;;;21.82;34.36;102160.25;21071709;28;20052;-72
2023/03/29 11:25:22;;;;;;;1.50;1.15;;;;;;;21.81;34.53;102164.16;21067536;28;20453;-67
2023/03/29 11:35:45;;;;;;;7.53;1.50;;;;;;;21.75;34.65;102160.44;21084911;28;20313;-70
2023/03/29 11:45:54;;;;;;;3.03;1.42;;;;;;;21.83;34.48;102173.91;21073481;28;20044;-70
2023/03/29 11:56:03;;;;;;;2.95;1.17;;;;;;;21.54;34.45;102119.47;21075189;28;20116;-71
2023/03/29 12:06:18;;;;;;;4.22;1.40;;;;;;;21.94;36.13;102174.06;21071343;28;20043;-69
2023/03/29 12:16:31;;;;;;;6.40;1.40;;;;;;;21.93;36.28;102162.06;21059857;28;20384;-69
2023/03/29 12:27:19;;;;;;;3.42;1.35;;;;;;;21.96;36.27;102167.13;21063949;28;20184;-71
2023/03/29 12:37:32;;;;;;;5.60;1.60;;;;;;;22.07;36.25;102173.66;21052061;28;20070;-67
2023/03/29 12:47:41;;;;;;;5.35;2.28;;;;;;;22.16;36.79;102177.72;21079505;28;20475;-68
2023/03/29 12:58:05;;;;;;;10.68;2.05;;;;;;;22.15;36.93;102159.31;21075522;28;20044;-69
2023/03/29 13:08:20;;;;;;;6.35;1.90;;;;;;;22.26;37.87;102161.09;21079198;28;20036;-69
2023/03/29 13:18:34;;;;;;;13.30;2.40;;;;;;;22.26;38.16;102155.53;21069857;28;20032;-69
2023/03/29 13:29:05;;;;;;;7.20;2.10;;;;;;;22.38;37.82;102157.34;21060833;28;20061;-68
2023/03/29 13:39:15;;;;;;;8.93;2.08;;;;;;;22.47;37.86;102147.41;21061351;28;20033;-69
2023/03/29 13:49:25;;;;;;;20.15;4.28;;;;;;;22.24;40.60;102132.66;21046555;28;20054;-74
2023/03/29 14:00:01;;;;;;;18.08;3.67;;;;;;;22.55;40.11;102135.78;21037210;28;20395;-74
2023/03/29 14:10:03;;;;;;;10.77;3.30;;;;;;;22.50;40.40;102100.31;21046259;28;20479;-76
2023/03/29 14:20:07;;;;;;;14.98;4.30;;;;;;;22.78;39.83;102112.28;21047402;28;20036;-72
2023/03/29 14:30:24;;;;;;;16.27;3.60;;;;;;;22.82;39.35;102114.28;21050158;28;20068;-73
2023/03/29 14:40:26;;;;;;;11.88;3.15;;;;;;;22.91;39.57;102138.94;21047181;28;20048;-72
2023/03/29 14:50:30;;;;;;;11.13;3.35;;;;;;;22.91;39.64;102124.97;21072718;28;20168;-71
2023/03/29 15:00:44;;;;;;;7.95;2.72;;;;;;;22.79;39.10;102098.06;21060664;28;20052;-72
2023/03/29 15:10:45;;;;;;;6.78;2.80;;;;;;;23.07;39.12;102126.78;21039894;28;20081;-71
2023/03/29 15:20:47;;;;;;;6.82;2.83;;;;;;;22.74;39.09;102061.75;21035235;28;20117;-72
2023/03/29 15:30:50;;;;;;;7.63;2.67;;;;;;;23.16;38.71;102119.59;21033832;28;20070;-70
2023/03/29 15:40:55;;;;;;;5.53;2.50;;;;;;;23.10;38.90;102081.59;21040862;28;20124;-72
2023/03/29 15:51:06;;;;;;;6.82;2.38;;;;;;;22.30;38.54;101935.56;21039282;28;20036;-70
2023/03/29 16:01:43;;;;;;;7.63;2.80;;;;;;;23.20;38.63;102087.25;21052034;28;20053;-71
2023/03/29 16:11:47;;;;;;;13.52;2.53;;;;;;;23.23;38.61;102067.16;21043780;28;20051;-70
2023/03/29 16:21:52;;;;;;;8.40;2.83;;;;;;;23.23;38.20;102067.16;21048518;28;20048;-71
2023/03/29 16:31:56;;;;;;;19.00;3.28;;;;;;;23.07;38.27;102035.50;21071324;28;20040;-71
2023/03/29 16:41:58;;;;;;;6.45;2.17;;;;;;;22.79;38.11;101963.28;21054617;28;20045;-71
2023/03/29 16:51:59;;;;;;;5.72;2.28;;;;;;;23.18;37.82;102014.06;21016445;28;20036;-71
2023/03/29 17:02:01;;;;;;;9.40;2.58;;;;;;;23.29;37.67;102023.34;21049410;28;20077;-73
2023/03/29 17:12:02;;;;;;;13.93;2.47;;;;;;;23.29;37.94;101990.69;21044023;28;20044;-72
2023/03/29 17:22:04;;;;;;;10.27;1.92;;;;;;;23.37;38.01;101974.50;21052251;28;20039;-69
2023/03/29 17:32:05;;;;;;;9.40;2.30;;;;;;;23.36;38.03;101947.69;21049677;28;20048;-72
2023/03/29 17:42:07;;;;;;;8.15;2.30;;;;;;;23.38;38.21;101931.50;21055043;28;20146;-72
2023/03/29 17:52:08;;;;;;;5.38;2.38;;;;;;;23.36;38.35;101889.03;21055644;28;20044;-70
2023/03/29 18:02:22;;;;;;;8.63;2.13;;;;;;;23.43;38.30;101878.44;21059980;28;20564;-72
2023/03/29 18:12:27;;;;;;;6.07;2.00;;;;;;;23.45;38.56;101851.06;21067334;28;20044;-69
2023/03/29 18:22:31;;;;;;;3.28;1.92;;;;;;;23.46;38.44;101827.59;21053186;28;20035;-71
2023/03/29 18:32:32;;;;;;;4.05;1.90;;;;;;;23.50;38.53;101821.22;21044897;28;20375;-71
2023/03/29 18:42:40;;;;;;;5.43;1.85;;;;;;;23.19;37.90;101744.91;21049176;28;20052;-72
2023/03/29 18:52:41;;;;;;;2.60;1.57;;;;;;;23.54;38.03;101790.72;21027258;28;20142;-70
2023/03/29 19:02:43;;;;;;;5.72;2.08;;;;;;;23.56;37.99;101777.34;21046875;28;20406;-70
2023/03/29 19:12:44;;;;;;;4.85;1.55;;;;;;;23.52;37.68;101737.09;21060924;28;20141;-69
2023/03/29 19:22:46;;;;;;;3.28;1.52;;;;;;;23.28;37.62;101698.56;21056789;28;20109;-70
2023/03/29 19:32:51;;;;;;;3.33;2.00;;;;;;;23.46;37.53;101704.69;21060096;28;20044;-74
2023/03/29 19:42:53;;;;;;;7.43;1.90;;;;;;;23.49;36.85;101679.00;21074372;28;20120;-67
2023/03/29 19:52:55;;;;;;;12.00;1.95;;;;;;;23.52;37.31;101675.66;21083861;28;20054;-70
2023/03/29 20:02:58;;;;;;;4.72;1.67;;;;;;;22.95;37.01;101595.81;21071239;28;20052;-69
2023/03/29 20:13:00;;;;;;;7.68;1.48;;;;;;;23.10;36.76;101607.00;21046073;28;20548;-70
2023/03/29 20:23:03;;;;;;;5.13;1.70;;;;;;;23.34;36.80;101649.97;21065559;28;20040;-71
2023/03/29 20:33:06;;;;;;;3.25;1.50;;;;;;;23.21;37.09;101636.56;21035274;28;20047;-71
2023/03/29 20:43:18;;;;;;;3.42;1.50;;;;;;;23.30;37.22;101662.81;21052784;28;20062;-69
2023/03/29 20:53:23;;;;;;;3.25;1.65;;;;;;;23.19;36.97;101636.03;21050091;28;20032;-72
2023/03/29 21:03:37;;;;;;;4.75;1.73;;;;;;;22.90;36.66;101587.44;21075323;28;20081;-72
2023/03/29 21:13:40;;;;;;;4.53;1.80;;;;;;;23.27;36.84;101640.19;21066436;28;20437;-71
2023/03/29 21:23:41;;;;;;;5.38;1.50;;;;;;;23.13;36.96;101589.66;21065470;28;20036;-70
2023/03/29 21:33:43;;;;;;;7.65;2.15;;;;;;;23.21;36.78;101597.47;21043558;28;20036;-74
2023/03/29 21:43:44;;;;;;;6.75;1.73;;;;;;;22.37;36.81;101442.63;21055196;28;20541;-72
2023/03/29 21:53:45;;;;;;;10.98;2.30;;;;;;;23.19;36.60;101610.06;21053808;28;20040;-73
2023/03/29 22:03:47;;;;;;;4.75;1.60;;;;;;;23.10;36.53;101584.66;21048384;28;20375;-73
2023/03/29 22:13:51;;;;;;;9.70;1.90;;;;;;;23.10;36.17;101601.41;21043491;28;20036;-78
2023/03/29 22:23:59;;;;;;;8.07;1.75;;;;;;;23.06;36.05;101597.50;21058770;28;20086;-73
2023/03/29 22:34:01;;;;;;;5.47;1.80;;;;;;;23.12;36.44;101613.13;21052198;28;20563;-72
2023/03/29 22:44:03;;;;;;;8.02;2.00;;;;;;;23.06;36.58;101601.13;21049796;28;20373;-73
2023/03/29 22:54:05;;;;;;;8.82;2.00;;;;;;;22.92;36.35;101562.91;21054948;28;20463;-75
2023/03/29 23:04:06;;;;;;;10.95;2.28;;;;;;;23.05;36.74;101593.03;20988066;28;20043;-68
2023/03/29 23:14:07;;;;;;;6.88;1.92;;;;;;;22.87;36.61;101543.34;20925620;28;20036;-72
2023/03/29 23:24:09;;;;;;;9.98;1.90;;;;;;;23.04;36.82;101569.00;20938894;28;20089;-71
2023/03/29 23:34:12;;;;;;;5.40;1.67;;;;;;;23.06;36.41;101572.38;21083233;28;20052;-72
2023/03/29 23:44:16;;;;;;;13.23;2.03;;;;;;;22.90;36.66;101576.28;21083935;28;20372;-73
2023/03/29 23:54:17;;;;;;;10.77;1.85;;;;;;;22.62;36.02;101572.03;21087646;28;20044;-71
